Time;durP1;ratioP1;P1;durP2;ratioP2;P2;SDS_P1;SDS_P2;PMS_P1;PMS_P2;Temp;Humidity;BMP_temperature;BMP_pressure;BME280_temperature;BME280_humidity;BME280_pressure;Samples;Min_cycle;Max_cycle;Signal;HPM_P1;HPM_P2
2022/12/11 00:01:43;;;;;;;66.97;40.83;;;;;;;8.05;78.35;99502.81;4949356;28;20060;-78
2022/12/11 00:04:10;;;;;;;77.30;42.97;;;;;;;7.93;78.80;99488.94;4946754;28;20125;-80
2022/12/11 00:06:37;;;;;;;66.47;39.53;;;;;;;7.76;78.52;99444.81;4946198;28;20058;-79
2022/12/11 00:09:06;;;;;;;67.25;38.95;;;;;;;7.96;79.20;99477.25;4961646;28;20562;-79
2022/12/11 00:11:33;;;;;;;75.13;41.33;;;;;;;7.61;79.25;99418.88;4946771;28;20122;-79
2022/12/11 00:14:00;;;;;;;66.80;39.40;;;;;;;7.77;79.10;99435.88;4947682;28;20630;-79
2022/12/11 00:16:27;;;;;;;67.32;40.92;;;;;;;8.16;78.45;99488.56;4947182;28;20053;-78
2022/12/11 00:18:54;;;;;;;65.70;39.33;;;;;;;8.04;79.11;99491.41;4962766;28;20050;-80
2022/12/11 00:21:21;;;;;;;67.80;39.47;;;;;;;7.97;78.81;99490.31;4965844;28;20054;-79
2022/12/11 00:23:48;;;;;;;63.85;39.05;;;;;;;7.89;79.18;99472.56;4949378;28;20467;-78
2022/12/11 00:26:15;;;;;;;58.42;37.22;;;;;;;8.07;79.33;99488.47;4963382;28;20034;-79
2022/12/11 00:28:45;;;;;;;70.97;38.80;;;;;;;8.15;78.68;99498.28;4975073;28;20144;-79
2022/12/11 00:31:15;;;;;;;64.38;39.10;;;;;;;7.72;79.42;99439.00;4947343;28;20175;-79
2022/12/11 00:33:44;;;;;;;63.50;38.47;;;;;;;8.18;79.77;99516.53;4924335;28;20216;-79
2022/12/11 00:36:16;;;;;;;67.72;39.92;;;;;;;8.10;79.27;99505.84;4944476;28;20050;-79
2022/12/11 00:38:43;;;;;;;;;;;;;;;8.19;79.26;99526.09;4927912;28;20058;-79
2022/12/11 00:41:10;;;;;;;54.92;35.05;;;;;;;8.21;78.92;99521.50;4922944;28;20355;-79
2022/12/11 00:43:40;;;;;;;57.45;36.75;;;;;;;8.24;78.90;99526.50;4923937;28;20531;-79
2022/12/11 00:46:09;;;;;;;66.75;38.53;;;;;;;8.17;79.32;99512.19;4933745;28;20116;-78
2022/12/11 00:48:39;;;;;;;62.28;36.80;;;;;;;8.30;78.94;99528.56;4958727;28;20539;-79
2022/12/11 00:51:06;;;;;;;67.07;37.28;;;;;;;7.99;78.77;99479.63;4960780;28;20050;-80
2022/12/11 00:53:36;;;;;;;62.70;37.97;;;;;;;7.93;78.93;99454.59;4938301;28;20050;-79
2022/12/11 00:56:19;;;;;;;55.53;35.83;;;;;;;8.39;78.36;99540.03;4955231;28;20702;-78
2022/12/11 00:58:47;;;;;;;65.05;37.03;;;;;;;7.01;78.28;99315.47;4959938;28;20261;-78
2022/12/11 01:01:23;;;;;;;57.70;35.55;;;;;;;8.27;77.81;99518.25;4940537;28;20678;-79
2022/12/11 01:03:52;;;;;;;55.00;35.90;;;;;;;8.38;78.52;99535.75;4958393;28;20447;-79
2022/12/11 01:06:23;;;;;;;60.03;34.03;;;;;;;8.41;78.05;99530.19;4941744;28;20170;-78
2022/12/11 01:11:41;;;;;;;54.85;34.15;;;;;;;8.46;78.13;99537.69;4960194;28;20669;-80
2022/12/11 01:14:13;;;;;;;53.30;33.30;;;;;;;8.13;77.97;99476.44;4942972;28;20057;-80
2022/12/11 01:16:39;;;;;;;56.75;33.75;;;;;;;8.33;77.89;99496.53;4940836;28;20555;-79
2022/12/11 01:19:06;;;;;;;52.42;32.90;;;;;;;8.48;77.78;99527.78;4939929;28;20427;-79
2022/12/11 01:21:35;;;;;;;53.85;32.78;;;;;;;8.51;77.22;99524.84;4941935;28;20062;-80
2022/12/11 01:24:02;;;;;;;58.30;33.40;;;;;;;8.48;76.76;99530.44;4941644;28;20132;-78
2022/12/11 01:26:29;;;;;;;53.53;32.80;;;;;;;8.49;76.62;99526.78;4939810;28;20062;-79
2022/12/11 01:28:56;;;;;;;55.30;34.25;;;;;;;8.46;77.29;99513.88;4950888;28;20359;-79
2022/12/11 01:31:22;;;;;;;52.97;32.85;;;;;;;8.50;77.34;99513.44;4955474;28;20054;-80
2022/12/11 01:33:52;;;;;;;52.35;32.85;;;;;;;8.38;76.54;99497.91;4958935;28;20053;-79
2022/12/11 01:36:21;;;;;;;52.78;32.47;;;;;;;8.30;76.85;99495.97;4956863;28;20058;-79
2022/12/11 01:38:48;;;;;;;53.22;33.00;;;;;;;6.96;76.93;99273.69;4959747;28;20050;-79
2022/12/11 01:41:18;;;;;;;58.05;34.30;;;;;;;8.51;76.74;99528.31;4962148;28;20054;-79
2022/12/11 01:44:04;;;;;;;59.97;33.03;;;;;;;8.30;77.12;99491.53;4958621;28;20129;-78
2022/12/11 01:46:34;;;;;;;50.15;31.25;;;;;;;8.38;76.41;99500.53;4960419;28;20065;-79
2022/12/11 01:49:04;;;;;;;55.35;33.97;;;;;;;8.40;76.39;99501.22;4956254;28;20058;-80
2022/12/11 01:51:38;;;;;;;51.10;32.63;;;;;;;8.31;77.10;99490.53;4957784;28;20046;-80
2022/12/11 01:54:10;;;;;;;57.80;32.17;;;;;;;8.09;76.42;99446.03;4972528;28;20058;-79
2022/12/11 01:56:38;;;;;;;52.60;31.73;;;;;;;8.22;76.70;99483.50;4960781;28;20488;-79
2022/12/11 01:59:08;;;;;;;56.17;33.42;;;;;;;8.46;77.59;99513.88;4947707;28;20282;-80
2022/12/11 02:01:46;;;;;;;56.28;34.53;;;;;;;8.13;76.86;99455.31;4945201;28;20339;-79
2022/12/11 02:04:15;;;;;;;62.15;34.92;;;;;;;8.48;76.92;99511.91;4935478;28;20492;-78
2022/12/11 02:06:45;;;;;;;56.90;33.42;;;;;;;8.30;76.99;99490.69;4940943;28;20047;-79
2022/12/11 02:09:19;;;;;;;57.08;33.50;;;;;;;8.49;77.16;99495.88;4924250;28;20058;-78
2022/12/11 02:12:00;;;;;;;58.78;36.63;;;;;;;8.53;76.92;99497.25;4940639;28;20539;-77
2022/12/11 02:14:33;;;;;;;55.92;35.22;;;;;;;8.47;77.96;99504.94;4920604;28;20058;-79
2022/12/11 02:17:17;;;;;;;56.88;33.92;;;;;;;8.42;77.23;99496.63;4938647;28;20058;-78
2022/12/11 02:20:12;;;;;;;60.45;35.97;;;;;;;8.45;77.43;99522.81;4958535;28;20054;-78
2022/12/11 02:23:04;;;;;;;59.92;36.17;;;;;;;8.42;77.00;99509.84;4960080;28;20209;-78
2022/12/11 02:25:50;;;;;;;62.33;35.38;;;;;;;8.13;77.16;99473.81;4959135;28;20081;-79
2022/12/11 02:28:48;;;;;;;60.00;36.10;;;;;;;8.39;77.22;99508.31;4961079;28;20386;-77
2022/12/11 02:31:39;;;;;;;61.88;35.88;;;;;;;8.29;76.91;99484.56;4941768;28;20307;-78
2022/12/11 02:34:14;;;;;;;60.25;36.00;;;;;;;8.39;77.30;99504.84;4943788;28;20137;-76
2022/12/11 02:36:47;;;;;;;55.35;35.13;;;;;;;8.12;77.27;99465.06;4958534;28;20061;-77
2022/12/11 02:39:16;;;;;;;60.05;34.75;;;;;;;8.09;77.32;99453.97;4957736;28;20050;-79
2022/12/11 02:41:48;;;;;;;65.32;36.85;;;;;;;8.17;77.91;99469.91;4956336;28;20514;-78
2022/12/11 02:44:28;;;;;;;66.40;36.65;;;;;;;8.25;77.36;99477.06;4957069;28;20042;-77
2022/12/11 02:46:59;;;;;;;60.80;36.30;;;;;;;8.33;77.11;99479.81;4955022;28;20222;-78
2022/12/11 02:49:27;;;;;;;58.50;35.78;;;;;;;8.14;77.21;99439.31;4958669;28;20061;-79
2022/12/11 02:51:58;;;;;;;60.08;36.28;;;;;;;8.18;77.19;99449.56;4959119;28;20058;-78
2022/12/11 02:54:32;;;;;;;63.20;37.08;;;;;;;8.31;77.03;99472.03;4962819;28;20447;-78
2022/12/11 02:57:13;;;;;;;58.33;34.42;;;;;;;7.58;76.54;99352.31;4972748;28;20553;-80
2022/12/11 02:59:43;;;;;;;58.83;36.38;;;;;;;8.38;77.50;99490.78;4967762;28;20058;-77
2022/12/11 03:02:12;;;;;;;69.55;38.45;;;;;;;8.44;76.87;99484.09;4959018;28;20058;-78
2022/12/11 03:04:40;;;;;;;59.13;37.15;;;;;;;8.44;76.58;99492.84;4959878;28;20057;-78
2022/12/11 03:07:22;;;;;;;64.15;39.60;;;;;;;8.24;76.50;99449.81;4940821;28;20054;-79
2022/12/11 03:09:49;;;;;;;58.83;36.70;;;;;;;8.43;76.45;99466.56;4960042;28;20054;-79
2022/12/11 03:12:39;;;;;;;69.60;37.92;;;;;;;8.53;75.96;99483.19;4960906;28;20046;-78
2022/12/11 03:15:09;;;;;;;59.00;37.35;;;;;;;7.98;76.44;99402.13;4938145;28;20584;-79
2022/12/11 03:18:05;;;;;;;63.17;38.03;;;;;;;8.44;75.82;99474.34;4921484;28;20165;-78
2022/12/11 03:20:43;;;;;;;64.80;36.70;;;;;;;8.48;76.26;99480.19;4922289;28;20604;-79
2022/12/11 03:23:13;;;;;;;62.03;37.88;;;;;;;8.05;76.49;99415.56;4940600;28;20145;-79
2022/12/11 03:25:46;;;;;;;64.90;38.50;;;;;;;8.47;76.83;99486.44;4921291;28;20565;-80
2022/12/11 03:28:18;;;;;;;56.83;36.10;;;;;;;8.24;76.44;99443.69;4928079;28;20605;-78
2022/12/11 03:30:48;;;;;;;;;;;;;;;8.46;76.64;99495.34;4941490;28;20050;-79
2022/12/11 03:33:22;;;;;;;60.78;36.20;;;;;;;8.48;77.66;99498.69;4955959;28;19933;-78
2022/12/11 03:36:05;;;;;;;65.38;38.67;;;;;;;8.29;77.42;99458.13;4941758;28;20303;-79
2022/12/11 03:38:43;;;;;;;63.15;37.85;;;;;;;8.49;77.72;99473.88;4954745;28;20431;-80
2022/12/11 03:41:13;;;;;;;63.90;37.65;;;;;;;8.57;77.29;99492.50;4951991;28;20062;-80
2022/12/11 03:43:41;;;;;;;66.57;37.47;;;;;;;8.58;77.39;99498.63;4944885;28;20598;-79
2022/12/11 03:46:08;;;;;;;55.67;33.90;;;;;;;8.50;77.40;99475.56;4957666;28;20062;-79
2022/12/11 03:48:40;;;;;;;57.70;36.20;;;;;;;8.60;77.49;99492.19;4957048;28;20582;-80
2022/12/11 03:51:08;;;;;;;61.83;34.88;;;;;;;8.55;77.73;99473.31;4955850;28;20050;-79
2022/12/11 03:53:36;;;;;;;56.88;35.05;;;;;;;8.50;78.13;99470.28;4956405;28;20073;-81
2022/12/11 03:56:06;;;;;;;63.35;36.80;;;;;;;8.56;79.19;99475.78;4959053;28;20547;-79
2022/12/11 03:58:32;;;;;;;63.17;38.00;;;;;;;8.43;79.61;99466.56;4957316;28;20050;-79
2022/12/11 04:01:00;;;;;;;62.08;36.53;;;;;;;8.43;79.79;99469.22;4942730;28;20054;-80
2022/12/11 04:03:27;;;;;;;65.50;37.28;;;;;;;8.18;79.96;99441.63;4940561;28;20062;-81
2022/12/11 04:05:55;;;;;;;64.97;37.53;;;;;;;8.46;79.97;99500.66;4943378;28;20100;-80
2022/12/11 04:08:23;;;;;;;58.08;35.67;;;;;;;8.34;81.11;99502.63;4958648;28;20502;-81
2022/12/11 04:13:37;;;;;;;68.53;36.55;;;;;;;8.29;82.42;99497.78;4959152;28;20460;-80
2022/12/11 04:16:04;;;;;;;62.83;34.85;;;;;;;8.28;82.71;99493.50;4942262;28;20466;-79
2022/12/11 04:24:21;;;;;;;56.75;33.97;;;;;;;8.09;80.22;99440.75;4962612;28;20153;-80
2022/12/11 04:26:48;;;;;;;57.20;33.88;;;;;;;8.14;80.69;99465.75;4944219;28;20060;-80
2022/12/11 04:29:20;;;;;;;54.78;31.33;;;;;;;8.22;80.77;99486.13;4943617;28;20624;-80
2022/12/11 04:31:49;;;;;;;47.42;26.65;;;;;;;8.02;80.17;99458.16;4931255;28;20495;-77
2022/12/11 04:34:16;;;;;;;47.17;27.55;;;;;;;7.96;80.24;99471.97;4962785;28;20224;-79
2022/12/11 04:36:43;;;;;;;41.63;24.60;;;;;;;8.04;79.79;99491.41;4961069;28;20054;-78
2022/12/11 04:39:13;;;;;;;43.03;25.48;;;;;;;7.57;79.34;99430.69;4960549;28;20200;-79
2022/12/11 04:41:43;;;;;;;41.67;25.02;;;;;;;7.84;78.92;99468.69;4945332;28;20185;-79
2022/12/11 04:44:10;;;;;;;46.10;26.42;;;;;;;7.92;79.38;99493.41;4961008;28;20069;-80
2022/12/11 04:46:37;;;;;;;41.35;24.95;;;;;;;7.87;79.81;99495.66;4944859;28;20050;-77
2022/12/11 04:49:04;;;;;;;36.65;24.08;;;;;;;7.65;80.28;99464.34;4945556;28;20960;-80
2022/12/11 04:51:33;;;;;;;40.47;24.45;;;;;;;7.84;80.74;99501.25;4945049;28;20057;-81
2022/12/11 04:54:02;;;;;;;39.53;24.58;;;;;;;7.81;81.13;99498.88;4943117;28;20052;-79
2022/12/11 04:56:35;;;;;;;41.25;25.35;;;;;;;7.80;80.54;99501.69;4962709;28;20450;-77
2022/12/11 04:59:01;;;;;;;43.72;25.83;;;;;;;7.80;80.76;99506.97;4943527;28;20139;-78
2022/12/11 05:01:28;;;;;;;38.17;24.23;;;;;;;7.78;80.76;99509.72;4943206;28;20073;-79
2022/12/11 05:03:55;;;;;;;40.67;25.77;;;;;;;7.72;81.21;99505.03;4943599;28;20480;-80
2022/12/11 05:06:23;;;;;;;46.95;26.83;;;;;;;7.78;80.63;99519.47;4945532;28;20544;-80
2022/12/11 05:08:50;;;;;;;37.30;24.52;;;;;;;7.74;81.13;99523.38;4962722;28;20081;-79
2022/12/11 05:11:16;;;;;;;43.92;26.67;;;;;;;7.71;81.41;99525.31;4944725;28;20050;-80
2022/12/11 05:13:44;;;;;;;39.97;24.77;;;;;;;7.48;80.83;99485.25;4949449;28;20270;-79
2022/12/11 05:16:13;;;;;;;42.30;26.35;;;;;;;7.69;81.40;99529.09;4970593;28;20057;-80
2022/12/11 05:18:40;;;;;;;45.20;26.33;;;;;;;7.65;81.09;99531.19;4965260;28;20144;-79
2022/12/11 05:21:10;;;;;;;43.83;27.25;;;;;;;7.09;81.34;99447.56;4944104;28;20060;-79
2022/12/11 05:23:37;;;;;;;41.47;26.35;;;;;;;7.64;81.75;99531.34;4960734;28;20503;-80
2022/12/11 05:26:08;;;;;;;42.50;25.50;;;;;;;7.66;82.43;99534.66;4943240;28;20086;-80
2022/12/11 05:28:38;;;;;;;40.28;24.48;;;;;;;7.53;82.15;99507.75;4942435;28;20133;-80
2022/12/11 05:31:11;;;;;;;45.22;25.45;;;;;;;7.68;81.58;99538.00;4942422;28;20066;-79
2022/12/11 05:33:38;;;;;;;41.08;24.27;;;;;;;7.70;81.16;99538.69;4958834;28;20074;-79
2022/12/11 05:36:06;;;;;;;41.78;25.90;;;;;;;7.65;81.52;99538.28;4943287;28;20165;-80
2022/12/11 05:38:37;;;;;;;44.33;24.73;;;;;;;7.60;82.11;99537.91;4959795;28;20054;-80
2022/12/11 05:41:06;;;;;;;40.58;25.13;;;;;;;7.51;81.60;99525.53;4943775;28;20047;-79
2022/12/11 05:43:34;;;;;;;40.17;25.02;;;;;;;7.56;81.61;99531.22;4962561;28;20054;-80
2022/12/11 05:46:13;;;;;;;45.03;24.45;;;;;;;7.60;81.51;99525.53;4942550;28;20177;-80
2022/12/11 05:48:45;;;;;;;42.72;23.85;;;;;;;7.57;80.44;99523.13;4960937;28;20060;-80
2022/12/11 05:51:14;;;;;;;37.90;24.42;;;;;;;7.57;80.84;99523.13;4958426;28;20054;-79
2022/12/11 05:53:46;;;;;;;42.50;25.42;;;;;;;7.19;80.58;99463.38;4960241;28;20050;-80
2022/12/11 05:56:15;;;;;;;40.70;24.05;;;;;;;7.40;81.67;99508.03;4958989;28;20324;-80
2022/12/11 05:58:44;;;;;;;40.90;23.08;;;;;;;7.13;82.28;99432.25;4963582;28;20398;-79
2022/12/11 06:01:15;;;;;;;43.58;24.10;;;;;;;7.82;82.23;99503.19;4963204;28;20061;-79
2022/12/11 06:03:42;;;;;;;38.88;24.15;;;;;;;7.60;82.39;99498.28;4941627;28;20142;-80
2022/12/11 06:06:12;;;;;;;39.47;24.30;;;;;;;7.71;81.87;99535.06;4942801;28;20108;-79
2022/12/11 06:08:39;;;;;;;39.30;23.55;;;;;;;7.63;82.18;99535.78;4944422;28;20583;-80
2022/12/11 06:11:17;;;;;;;46.47;24.98;;;;;;;6.03;81.85;99306.13;4944309;28;20400;-79
2022/12/11 06:13:50;;;;;;;45.58;25.80;;;;;;;7.48;82.08;99553.06;4940271;28;20522;-79
2022/12/11 06:16:16;;;;;;;44.67;24.60;;;;;;;7.40;83.02;99545.88;4939303;28;20050;-80
2022/12/11 06:18:44;;;;;;;41.25;25.40;;;;;;;7.43;82.97;99550.03;4953403;28;20057;-79
2022/12/11 06:21:16;;;;;;;38.15;24.67;;;;;;;7.42;82.82;99551.81;4941147;28;20061;-79
2022/12/11 06:23:43;;;;;;;43.85;25.60;;;;;;;6.98;82.94;99498.66;4942714;28;20046;-79
2022/12/11 06:26:14;;;;;;;47.83;26.00;;;;;;;6.24;82.20;99363.91;4941385;28;20135;-78
2022/12/11 06:28:42;;;;;;;44.30;25.27;;;;;;;7.27;82.39;99540.03;4939589;28;20061;-76
2022/12/11 06:31:12;;;;;;;48.63;28.17;;;;;;;7.42;82.46;99570.28;4950567;28;20719;-77
2022/12/11 06:33:55;;;;;;;44.67;27.48;;;;;;;7.34;81.92;99554.34;4967813;28;20502;-80
2022/12/11 06:36:23;;;;;;;50.55;28.90;;;;;;;7.42;82.13;99558.91;4942133;28;20573;-78
2022/12/11 06:38:51;;;;;;;45.95;28.73;;;;;;;7.14;81.90;99521.03;4954877;28;20157;-78
2022/12/11 06:41:17;;;;;;;52.13;30.70;;;;;;;7.37;82.41;99558.50;4960639;28;20105;-79
2022/12/11 06:43:44;;;;;;;49.83;29.77;;;;;;;7.42;81.36;99567.66;4954313;28;20058;-78
2022/12/11 06:46:17;;;;;;;50.45;30.17;;;;;;;7.33;80.76;99550.03;4954903;28;20054;-77
2022/12/11 06:49:01;;;;;;;48.40;30.50;;;;;;;7.30;80.32;99563.50;4953011;28;20598;-79
2022/12/11 06:51:31;;;;;;;57.28;31.88;;;;;;;6.94;79.61;99515.78;4977695;28;20522;-78
2022/12/11 06:54:25;;;;;;;57.97;32.28;;;;;;;7.12;80.25;99573.13;4923831;28;20054;-78
2022/12/11 06:56:52;;;;;;;61.20;33.40;;;;;;;7.14;80.83;99581.75;4899262;29;20450;-78
2022/12/11 06:59:19;;;;;;;62.58;33.55;;;;;;;7.16;79.97;99577.13;4898625;29;20492;-79
2022/12/11 07:01:45;;;;;;;67.50;34.70;;;;;;;7.11;79.33;99582.00;4908274;28;20066;-77
2022/12/11 07:19:00;;;;;;;59.53;33.22;;;;;;;6.75;78.64;99608.09;4947310;28;19926;-75
2022/12/11 07:21:34;;;;;;;62.38;35.10;;;;;;;6.68;79.06;99617.50;4930405;29;20583;-76
2022/12/11 07:24:26;;;;;;;61.58;31.85;;;;;;;6.49;79.25;99608.56;4930026;29;20490;-79
2022/12/11 07:26:55;;;;;;;58.15;32.72;;;;;;;6.48;79.99;99622.75;4928496;29;20114;-79
2022/12/11 07:29:22;;;;;;;72.30;35.05;;;;;;;6.45;80.02;99625.63;4946410;28;20051;-78
2022/12/11 07:31:49;;;;;;;61.90;34.40;;;;;;;6.40;79.86;99630.47;4937287;28;20456;-79
2022/12/11 07:34:16;;;;;;;65.50;35.28;;;;;;;5.97;79.75;99566.50;4960373;28;20397;-80
2022/12/11 07:36:46;;;;;;;56.90;33.08;;;;;;;6.16;79.94;99607.88;4941623;28;20872;-78
2022/12/11 07:39:15;;;;;;;64.50;35.03;;;;;;;6.28;79.15;99645.53;4959907;28;20332;-78
2022/12/11 07:41:42;;;;;;;63.92;36.03;;;;;;;6.13;80.17;99625.78;4938182;28;20061;-79
2022/12/11 07:44:08;;;;;;;70.35;36.72;;;;;;;6.22;80.09;99645.25;4939867;28;20466;-78
2022/12/11 07:46:35;;;;;;;67.15;35.47;;;;;;;6.16;80.99;99649.22;4957290;28;20169;-79
2022/12/11 07:49:04;;;;;;;61.13;34.63;;;;;;;6.27;80.99;99664.13;4941705;28;20062;-79
2022/12/11 07:51:34;;;;;;;67.95;38.03;;;;;;;6.28;81.33;99668.44;4959288;28;20145;-79
2022/12/11 07:54:20;;;;;;;62.45;35.13;;;;;;;6.25;80.86;99668.69;4945975;28;20094;-79
2022/12/11 07:56:59;;;;;;;72.55;37.47;;;;;;;6.23;80.79;99678.53;4964281;28;20187;-79
2022/12/11 07:59:29;;;;;;;69.82;38.28;;;;;;;6.10;81.23;99665.59;4942763;28;20547;-78
2022/12/11 08:01:56;;;;;;;66.78;34.88;;;;;;;6.15;81.49;99682.66;4927476;28;20062;-78
2022/12/11 08:04:23;;;;;;;71.43;39.33;;;;;;;6.14;81.33;99682.78;4932375;28;20500;-78
2022/12/11 08:06:54;;;;;;;74.78;39.50;;;;;;;5.86;80.89;99647.38;4941681;28;20575;-79
2022/12/11 08:09:21;;;;;;;66.70;37.55;;;;;;;5.84;81.56;99662.47;4927094;28;20050;-78
2022/12/11 08:11:49;;;;;;;76.10;40.33;;;;;;;5.90;81.93;99669.88;4926885;28;20145;-78
2022/12/11 08:14:17;;;;;;;78.88;40.40;;;;;;;5.71;82.08;99652.97;4923628;28;20881;-77
2022/12/11 08:16:44;;;;;;;80.03;40.35;;;;;;;5.81;81.92;99670.66;4954648;28;20074;-78
2022/12/11 08:19:12;;;;;;;78.53;41.30;;;;;;;5.45;82.07;99622.72;4955341;28;20042;-78
2022/12/11 08:21:41;;;;;;;77.10;41.13;;;;;;;5.87;81.87;99717.53;4943441;28;20054;-78
2022/12/11 08:24:08;;;;;;;76.97;40.10;;;;;;;5.84;82.64;99723.88;4961038;28;20054;-77
2022/12/11 08:26:36;;;;;;;65.70;37.92;;;;;;;5.74;82.30;99709.81;4959653;28;20527;-78
2022/12/11 08:29:03;;;;;;;72.63;37.97;;;;;;;5.63;82.78;99700.19;4946678;28;20332;-78
2022/12/11 08:31:30;;;;;;;75.55;39.95;;;;;;;5.57;82.31;99687.50;4961201;28;20057;-79
2022/12/11 08:33:57;;;;;;;60.97;34.05;;;;;;;5.74;81.66;99717.72;4963803;28;20204;-78
2022/12/11 08:36:24;;;;;;;56.10;30.77;;;;;;;5.64;80.60;99708.91;4962531;28;20225;-77
2022/12/11 08:38:56;;;;;;;55.58;31.48;;;;;;;5.37;79.37;99699.69;4957673;28;20562;-78
2022/12/11 08:41:28;;;;;;;48.75;28.77;;;;;;;5.46;78.23;99751.59;4962017;28;20054;-77
2022/12/11 08:43:57;;;;;;;49.55;28.05;;;;;;;5.28;78.68;99732.84;4962166;28;20060;-78
2022/12/11 08:46:30;;;;;;;54.03;29.30;;;;;;;5.35;79.88;99759.50;4946701;28;20058;-78
2022/12/11 08:49:00;;;;;;;60.00;31.58;;;;;;;5.19;80.36;99727.47;4945319;28;20496;-78
2022/12/11 08:51:29;;;;;;;52.58;29.23;;;;;;;5.45;80.93;99754.34;4960440;28;20054;-78
2022/12/11 08:53:59;;;;;;;53.97;31.08;;;;;;;5.48;80.39;99739.09;4964310;28;20090;-78
2022/12/11 08:56:27;;;;;;;58.15;30.08;;;;;;;5.40;80.13;99744.16;4946952;28;20050;-77
2022/12/11 08:58:54;;;;;;;48.75;28.05;;;;;;;5.34;80.88;99748.16;4962642;28;20621;-78
2022/12/11 09:01:23;;;;;;;54.33;29.30;;;;;;;5.20;80.65;99719.47;4940664;28;20148;-78
2022/12/11 09:03:51;;;;;;;53.20;29.67;;;;;;;5.52;81.26;99777.41;4943329;28;20058;-79
2022/12/11 09:06:23;;;;;;;56.33;31.13;;;;;;;5.53;81.27;99767.69;4941988;28;20339;-78
2022/12/11 09:08:51;;;;;;;49.13;30.42;;;;;;;5.61;80.62;99786.38;4941727;28;20507;-78
2022/12/11 09:11:24;;;;;;;50.00;28.23;;;;;;;5.87;81.46;99775.47;4957824;28;20046;-78
2022/12/11 09:13:51;;;;;;;53.42;29.65;;;;;;;5.84;80.91;99773.94;4941429;28;20046;-79
2022/12/11 09:16:20;;;;;;;46.65;26.33;;;;;;;5.87;80.38;99770.22;4942063;28;20086;-79
2022/12/11 09:18:52;;;;;;;48.33;28.77;;;;;;;5.82;80.04;99777.66;4957873;28;20610;-79
2022/12/11 09:21:21;;;;;;;48.85;27.92;;;;;;;5.78;81.42;99783.19;4959467;28;20046;-79
2022/12/11 09:23:51;;;;;;;41.83;25.23;;;;;;;6.04;80.98;99803.94;4960015;28;20236;-79
2022/12/11 09:26:18;;;;;;;40.30;24.73;;;;;;;5.88;80.72;99779.81;4941273;28;20050;-79
2022/12/11 09:28:52;;;;;;;44.53;25.10;;;;;;;6.15;79.92;99805.69;4942808;28;20368;-78
2022/12/11 09:31:24;;;;;;;42.72;27.30;;;;;;;5.81;79.70;99791.81;4961293;28;20046;-79
2022/12/11 09:33:57;;;;;;;45.22;25.15;;;;;;;5.83;80.27;99824.13;4943569;28;20051;-79
2022/12/11 09:36:25;;;;;;;44.35;24.90;;;;;;;5.77;81.45;99825.44;4964120;28;20073;-78
2022/12/11 09:38:58;;;;;;;43.47;26.23;;;;;;;5.51;80.46;99807.34;4951032;28;20161;-79
2022/12/11 09:41:36;;;;;;;38.43;23.93;;;;;;;5.46;81.36;99803.38;4960020;28;20061;-79
2022/12/11 09:44:40;;;;;;;44.47;25.27;;;;;;;5.52;81.21;99776.56;4960541;28;20209;-79
2022/12/11 09:47:58;;;;;;;39.60;23.88;;;;;;;5.22;80.28;99724.59;4918098;28;20246;-79
2022/12/11 09:50:35;;;;;;;38.97;24.52;;;;;;;5.92;80.94;99828.63;4917568;29;20162;-79
2022/12/11 09:53:17;;;;;;;44.63;24.17;;;;;;;6.04;80.07;99814.47;4898400;29;20537;-78
2022/12/11 09:56:20;;;;;;;38.15;22.77;;;;;;;5.96;79.62;99806.38;4944217;28;20073;-79
2022/12/11 09:59:00;;;;;;;;;;;;;;;6.18;79.51;99819.44;4944207;28;20148;-78
2022/12/11 10:01:37;;;;;;;38.50;23.48;;;;;;;6.12;79.85;99834.94;4940094;28;19926;-78
2022/12/11 10:04:26;;;;;;;41.42;23.58;;;;;;;6.39;79.53;99829.19;4945517;28;20050;-79
2022/12/11 10:07:05;;;;;;;36.85;22.23;;;;;;;6.30;78.37;99832.56;4947343;28;20582;-79
2022/12/11 10:09:32;;;;;;;42.13;23.23;;;;;;;6.30;78.62;99824.66;4940956;28;20155;-80
2022/12/11 10:12:49;;;;;;;36.53;23.10;;;;;;;6.15;77.97;99806.53;4954741;28;20551;-79
2022/12/11 10:15:18;;;;;;;37.33;22.05;;;;;;;6.16;78.52;99808.19;4951677;28;20161;-77
2022/12/11 10:17:46;;;;;;;38.30;22.45;;;;;;;6.07;78.29;99808.97;4942987;28;20620;-78
2022/12/11 10:20:32;;;;;;;39.67;24.88;;;;;;;6.35;79.72;99814.56;4955106;28;20042;-79
2022/12/11 10:23:03;;;;;;;38.30;22.55;;;;;;;6.54;78.99;99816.50;4958216;28;20198;-79
2022/12/11 10:25:38;;;;;;;37.85;23.50;;;;;;;6.48;76.86;99815.22;4937763;28;20050;-79
2022/12/11 10:28:13;;;;;;;37.70;20.95;;;;;;;6.44;77.62;99807.69;4941281;28;20196;-79
2022/12/11 10:30:53;;;;;;;38.42;22.80;;;;;;;6.50;77.97;99799.25;4922348;28;20317;-78
2022/12/11 10:33:35;;;;;;;34.47;22.88;;;;;;;6.34;78.12;99794.44;4952562;28;20062;-77
2022/12/11 10:36:07;;;;;;;36.85;22.33;;;;;;;6.44;77.76;99787.44;4944393;28;20050;-80
2022/12/11 10:38:46;;;;;;;41.53;23.85;;;;;;;6.28;78.01;99766.78;4956497;28;20677;-77
2022/12/11 10:41:20;;;;;;;45.45;23.65;;;;;;;6.42;77.55;99799.91;4959650;28;20186;-78
2022/12/11 10:43:48;;;;;;;36.58;21.73;;;;;;;6.31;79.06;99800.81;4955119;28;20148;-78
2022/12/11 10:46:22;;;;;;;38.00;23.63;;;;;;;6.35;78.72;99809.28;4956766;28;20060;-78
2022/12/11 10:49:13;;;;;;;41.70;24.77;;;;;;;6.31;78.62;99805.22;4940233;28;20570;-80
2022/12/11 10:51:40;;;;;;;39.83;22.63;;;;;;;6.02;78.41;99758.44;4939328;28;20367;-78
2022/12/11 10:54:16;;;;;;;38.25;23.38;;;;;;;6.31;79.32;99815.78;4954540;28;20166;-78
2022/12/11 10:56:47;;;;;;;40.53;23.88;;;;;;;6.41;79.03;99827.25;4955339;28;20263;-79
2022/12/11 10:59:42;;;;;;;40.00;23.75;;;;;;;6.35;78.58;99819.84;4941256;28;20054;-78
2022/12/11 11:02:25;;;;;;;41.13;23.65;;;;;;;5.82;79.50;99738.16;4955848;28;20054;-79
2022/12/11 11:04:56;;;;;;;37.50;21.75;;;;;;;6.42;80.12;99819.19;4936520;28;20502;-79
2022/12/11 11:07:28;;;;;;;35.83;22.05;;;;;;;6.73;79.27;99821.06;4944801;28;20061;-79
2022/12/11 11:10:10;;;;;;;36.72;22.80;;;;;;;5.61;78.54;99633.66;4957037;28;20129;-77
2022/12/11 11:12:41;;;;;;;39.80;24.55;;;;;;;6.71;78.56;99826.44;4942670;28;20140;-78
2022/12/11 11:15:19;;;;;;;38.90;24.17;;;;;;;6.64;78.49;99812.09;4942546;28;20491;-79
2022/12/11 11:17:52;;;;;;;39.70;21.98;;;;;;;6.70;78.31;99818.66;4942703;28;20061;-77
2022/12/11 11:20:28;;;;;;;42.92;25.90;;;;;;;6.19;78.17;99752.59;4959166;28;20419;-77
2022/12/11 11:23:01;;;;;;;42.42;23.65;;;;;;;6.50;78.27;99815.91;4975424;28;20057;-79
2022/12/11 11:25:31;;;;;;;47.97;27.55;;;;;;;6.03;78.43;99743.47;4964931;28;20050;-78
2022/12/11 11:28:05;;;;;;;48.58;28.05;;;;;;;6.40;78.48;99831.66;4937259;28;20529;-78
2022/12/11 11:30:40;;;;;;;53.97;28.58;;;;;;;5.91;79.27;99776.91;4954272;28;20318;-76
2022/12/11 11:33:19;;;;;;;46.42;26.13;;;;;;;6.06;79.21;99807.28;4960198;28;20051;-77
2022/12/11 11:36:01;;;;;;;41.70;25.88;;;;;;;6.09;80.14;99832.53;4938244;28;20054;-80
2022/12/11 11:39:01;;;;;;;44.17;26.03;;;;;;;5.25;80.48;99701.50;4940157;28;20046;-77
2022/12/11 11:42:02;;;;;;;43.67;26.95;;;;;;;6.08;80.46;99836.97;4943286;28;20093;-78
2022/12/11 11:45:09;;;;;;;48.50;29.25;;;;;;;5.81;80.76;99799.69;4952759;28;20554;-78
2022/12/11 11:47:49;;;;;;;54.25;30.17;;;;;;;5.93;80.92;99817.97;4872118;29;20062;-79
2022/12/11 11:50:31;;;;;;;44.25;27.40;;;;;;;6.05;80.88;99836.41;4942657;28;20054;-76
2022/12/11 11:53:04;;;;;;;;;;;;;;;6.04;81.14;99834.72;4960141;28;20200;-78
2022/12/11 11:56:00;;;;;;;45.78;27.02;;;;;;;6.02;80.77;99836.63;4956463;28;20297;-78
2022/12/11 11:58:48;;;;;;;39.88;24.63;;;;;;;5.98;81.38;99830.81;4956521;28;20069;-77
2022/12/11 12:01:18;;;;;;;42.80;24.48;;;;;;;5.90;81.53;99812.13;4937328;28;20198;-77
2022/12/11 12:03:49;;;;;;;40.47;23.70;;;;;;;5.84;81.18;99791.53;4917561;29;20047;-77
2022/12/11 12:06:44;;;;;;;41.63;23.73;;;;;;;5.99;80.86;99821.91;4917828;28;20097;-77
2022/12/11 12:09:22;;;;;;;41.47;24.48;;;;;;;5.52;81.19;99752.88;4911558;29;20097;-76
2022/12/11 12:12:10;;;;;;;40.55;24.98;;;;;;;5.94;81.67;99829.38;4918673;28;20266;-77
2022/12/11 12:15:06;;;;;;;34.92;20.77;;;;;;;6.05;82.00;99839.88;4932872;28;20302;-77
2022/12/11 12:17:39;;;;;;;30.17;18.90;;;;;;;6.18;82.20;99822.06;4920390;29;20118;-78
2022/12/11 12:20:15;;;;;;;28.10;16.60;;;;;;;6.34;80.67;99842.75;4919938;29;20209;-77